Sheridan Lake, CO (81071)

4:21 PM MDT on September 20, 2014 (GMT -0600)
Tribune | Change Station
CLOSE
Current Station
Personal Weather Station
Location: Tribune, KS
Elevation: 3600 ft
Nearby Weather Stations

Elev 3600 ft 38.47 °N, 101.75 °W | Updated 4 seconds ago

Clear
Clear
85.6 °F
Feels Like 84 °F
N
6.0
Wind Variable Wind from ENE
Gusts 11.0 mph

Today
High -- | Low -- °F
--% Chance of Precip.
Yesterday
High -- | Low -- °F
Precip. -- in
6:34 AM 6:48 PM
Waning Crescent, 10% visible
Pressure 29.92 in
Visibility 10.0 miles
Clouds Clear
Heat Index 84 °F
Dew Point 56 °F
Humidity 37%
Rainfall 0.00 in
Snow Depth 0 in , 3 in , 0 in
UV 4 out of 12
Pollen 6.10 out of 12
Air Quality Not available.
Flu Activity Not available.
METAR KLAA 202153Z AUTO 05012G19KT 10SM CLR 32/11 A3006 RMK AO2 SLP130 T03220106

More Conditions Fewer Conditions

Pressure 29.92 in
Visibility 10.0 miles
Clouds Clear
Heat Index 84 °F
Dew Point 56 °F
Humidity 37%
Rainfall 0.00 in
Snow Depth 0 in , 3 in , 0 in
UV 4 out of 12
Pollen 6.10 out of 12
Air Quality Not available.
Flu Activity Not available.
METAR KLAA 202153Z AUTO 05012G19KT 10SM CLR 32/11 A3006 RMK AO2 SLP130 T03220106

More Conditions Fewer Conditions

10-Day Weather Forecast

Almanac

Astronomy

Sep. 20, 2014 Rise Set
Actual Time 6:34 AM MDT 6:48 PM MDT
Civil Twilight 6:08 AM MDT 7:15 PM MDT
Nautical Twilight 5:37 AM MDT 7:46 PM MDT
Astronomical Twilight 5:05 AM MDT 8:17 PM MDT
Moon 3:17 AM MDT 4:51 PM MDT
Length of Visible Light 13h 06m
Length of Day
12h 14m
Tomorrow will be 2m 28s shorter.
Waning Crescent, 10% of the Moon is Illuminated
Today
Waning Crescent
Sep 24
New
Oct 1
First Quarter
Oct 8
Full
Oct 15
Last Quarter

Today's Extremes

State Highs State Lows

Community

WunderPhotos

Upload Photos

1,754,967 photos uploaded!

WunderBlogs® & News

Nearby

Snow Depth

Station Depth Elevation
Arapaho Ridge 0 in 10960 ft
Mancos 3 in 10000 ft
North Lost Trail 0 in 9200 ft
Independence Pass 186 in 10600 ft
Loveland Basin 8 in 11400 ft

Earthquake Activity

City Distance Mag. Time & Date
No recent earthquake activity has been reported nearby.
Minimum magnitude displayed is 2.5.

Coastal Water Temperatures

Place Temperature
No Stations Reporting

Nearby Weather Stations